sensor_id;sensor_type;location;lat;lon;timestamp;P1;durP1;ratioP1;P2;durP2;ratioP2
70467;SDS011;57934;51.532;7.684;2023-05-13T00:02:03;11.32;;;10.23;;
70467;SDS011;57934;51.532;7.684;2023-05-13T00:04:31;14.20;;;9.60;;
70467;SDS011;57934;51.532;7.684;2023-05-13T00:06:57;11.88;;;9.43;;
70467;SDS011;57934;51.532;7.684;2023-05-13T00:09:23;11.82;;;9.60;;
70467;SDS011;57934;51.532;7.684;2023-05-13T00:11:49;11.90;;;9.43;;
70467;SDS011;57934;51.532;7.684;2023-05-13T00:14:15;11.18;;;9.30;;
70467;SDS011;57934;51.532;7.684;2023-05-13T00:16:41;11.00;;;9.82;;
70467;SDS011;57934;51.532;7.684;2023-05-13T00:19:08;10.40;;;9.27;;
70467;SDS011;57934;51.532;7.684;2023-05-13T00:21:34;12.23;;;9.32;;
70467;SDS011;57934;51.532;7.684;2023-05-13T00:24:00;11.98;;;9.82;;
70467;SDS011;57934;51.532;7.684;2023-05-13T00:26:26;11.25;;;9.65;;
70467;SDS011;57934;51.532;7.684;2023-05-13T00:28:52;11.88;;;10.15;;
70467;SDS011;57934;51.532;7.684;2023-05-13T00:31:18;12.88;;;9.80;;
70467;SDS011;57934;51.532;7.684;2023-05-13T00:33:44;13.13;;;9.77;;
70467;SDS011;57934;51.532;7.684;2023-05-13T00:36:10;11.20;;;10.00;;
70467;SDS011;57934;51.532;7.684;2023-05-13T00:38:37;12.57;;;9.52;;
70467;SDS011;57934;51.532;7.684;2023-05-13T00:41:03;13.32;;;9.60;;
70467;SDS011;57934;51.532;7.684;2023-05-13T00:43:30;12.60;;;10.10;;
70467;SDS011;57934;51.532;7.684;2023-05-13T00:45:56;10.55;;;9.45;;
70467;SDS011;57934;51.532;7.684;2023-05-13T00:48:24;11.38;;;10.10;;
70467;SDS011;57934;51.532;7.684;2023-05-13T00:50:51;15.35;;;10.45;;
70467;SDS011;57934;51.532;7.684;2023-05-13T00:53:17;12.32;;;9.70;;
70467;SDS011;57934;51.532;7.684;2023-05-13T00:55:44;11.75;;;10.52;;
70467;SDS011;57934;51.532;7.684;2023-05-13T00:58:11;14.80;;;11.10;;
70467;SDS011;57934;51.532;7.684;2023-05-13T01:12:35;11.13;;;10.02;;
70467;SDS011;57934;51.532;7.684;2023-05-13T01:15:05;11.80;;;10.60;;
70467;SDS011;57934;51.532;7.684;2023-05-13T01:17:56;12.45;;;10.82;;
70467;SDS011;57934;51.532;7.684;2023-05-13T01:20:22;12.50;;;11.20;;
70467;SDS011;57934;51.532;7.684;2023-05-13T01:22:48;13.15;;;11.75;;
70467;SDS011;57934;51.532;7.684;2023-05-13T01:25:15;13.05;;;11.70;;
70467;SDS011;57934;51.532;7.684;2023-05-13T01:27:42;16.88;;;11.07;;
70467;SDS011;57934;51.532;7.684;2023-05-13T01:30:09;13.88;;;11.15;;
70467;SDS011;57934;51.532;7.684;2023-05-13T01:32:37;12.95;;;11.52;;
70467;SDS011;57934;51.532;7.684;2023-05-13T01:35:03;15.02;;;12.25;;
70467;SDS011;57934;51.532;7.684;2023-05-13T01:37:32;15.13;;;12.48;;
70467;SDS011;57934;51.532;7.684;2023-05-13T01:39:59;14.55;;;13.00;;
70467;SDS011;57934;51.532;7.684;2023-05-13T01:42:27;16.10;;;12.80;;
70467;SDS011;57934;51.532;7.684;2023-05-13T01:44:54;16.75;;;13.30;;
70467;SDS011;57934;51.532;7.684;2023-05-13T01:47:22;14.98;;;13.30;;
70467;SDS011;57934;51.532;7.684;2023-05-13T01:49:48;17.48;;;13.60;;
70467;SDS011;57934;51.532;7.684;2023-05-13T01:52:14;18.52;;;14.18;;
70467;SDS011;57934;51.532;7.684;2023-05-13T01:54:40;15.27;;;13.63;;
70467;SDS011;57934;51.532;7.684;2023-05-13T01:57:09;17.88;;;13.75;;
70467;SDS011;57934;51.532;7.684;2023-05-13T01:59:36;18.52;;;14.57;;
70467;SDS011;57934;51.532;7.684;2023-05-13T02:02:02;17.33;;;14.90;;
70467;SDS011;57934;51.532;7.684;2023-05-13T02:04:28;18.85;;;15.50;;
70467;SDS011;57934;51.532;7.684;2023-05-13T02:06:55;20.55;;;15.85;;
70467;SDS011;57934;51.532;7.684;2023-05-13T02:09:21;19.92;;;15.25;;
70467;SDS011;57934;51.532;7.684;2023-05-13T02:11:47;16.55;;;14.77;;
70467;SDS011;57934;51.532;7.684;2023-05-13T02:14:14;19.20;;;15.73;;
70467;SDS011;57934;51.532;7.684;2023-05-13T02:16:41;16.48;;;14.20;;
70467;SDS011;57934;51.532;7.684;2023-05-13T02:19:07;22.50;;;14.57;;
70467;SDS011;57934;51.532;7.684;2023-05-13T02:21:33;20.95;;;15.30;;
70467;SDS011;57934;51.532;7.684;2023-05-13T02:23:59;16.65;;;14.57;;
70467;SDS011;57934;51.532;7.684;2023-05-13T02:26:27;22.02;;;14.88;;
70467;SDS011;57934;51.532;7.684;2023-05-13T02:28:54;19.40;;;14.20;;
70467;SDS011;57934;51.532;7.684;2023-05-13T02:31:20;19.13;;;14.02;;
70467;SDS011;57934;51.532;7.684;2023-05-13T02:33:46;18.83;;;14.13;;
70467;SDS011;57934;51.532;7.684;2023-05-13T02:36:13;17.25;;;13.63;;
70467;SDS011;57934;51.532;7.684;2023-05-13T02:38:40;20.45;;;13.55;;
70467;SDS011;57934;51.532;7.684;2023-05-13T02:41:07;21.27;;;14.00;;
70467;SDS011;57934;51.532;7.684;2023-05-13T02:43:34;19.80;;;13.95;;
70467;SDS011;57934;51.532;7.684;2023-05-13T02:46:04;18.20;;;13.60;;
70467;SDS011;57934;51.532;7.684;2023-05-13T02:48:31;17.58;;;13.63;;
70467;SDS011;57934;51.532;7.684;2023-05-13T02:50:57;17.33;;;14.20;;
70467;SDS011;57934;51.532;7.684;2023-05-13T02:53:23;17.27;;;13.82;;
70467;SDS011;57934;51.532;7.684;2023-05-13T02:55:56;14.60;;;12.70;;
70467;SDS011;57934;51.532;7.684;2023-05-13T02:58:25;18.60;;;14.38;;
70467;SDS011;57934;51.532;7.684;2023-05-13T03:00:52;16.83;;;13.80;;
70467;SDS011;57934;51.532;7.684;2023-05-13T03:03:18;16.95;;;14.30;;
70467;SDS011;57934;51.532;7.684;2023-05-13T03:05:44;15.85;;;13.15;;
70467;SDS011;57934;51.532;7.684;2023-05-13T03:08:10;21.77;;;12.95;;
70467;SDS011;57934;51.532;7.684;2023-05-13T03:10:37;18.90;;;13.45;;
70467;SDS011;57934;51.532;7.684;2023-05-13T03:13:02;23.48;;;14.57;;
70467;SDS011;57934;51.532;7.684;2023-05-13T03:15:29;16.23;;;14.52;;
70467;SDS011;57934;51.532;7.684;2023-05-13T03:17:55;18.23;;;14.10;;
70467;SDS011;57934;51.532;7.684;2023-05-13T03:20:22;21.90;;;14.63;;
70467;SDS011;57934;51.532;7.684;2023-05-13T03:22:49;16.63;;;14.73;;
70467;SDS011;57934;51.532;7.684;2023-05-13T03:25:15;18.50;;;14.73;;
70467;SDS011;57934;51.532;7.684;2023-05-13T03:27:46;22.73;;;14.57;;
70467;SDS011;57934;51.532;7.684;2023-05-13T03:30:14;19.77;;;14.52;;
70467;SDS011;57934;51.532;7.684;2023-05-13T03:32:47;19.75;;;14.90;;
70467;SDS011;57934;51.532;7.684;2023-05-13T03:35:13;19.27;;;14.27;;
70467;SDS011;57934;51.532;7.684;2023-05-13T03:37:40;18.27;;;14.10;;
70467;SDS011;57934;51.532;7.684;2023-05-13T03:40:08;16.55;;;14.52;;
70467;SDS011;57934;51.532;7.684;2023-05-13T03:42:35;20.48;;;14.60;;
70467;SDS011;57934;51.532;7.684;2023-05-13T03:45:03;19.48;;;14.35;;
70467;SDS011;57934;51.532;7.684;2023-05-13T03:47:32;20.33;;;14.73;;
70467;SDS011;57934;51.532;7.684;2023-05-13T03:50:01;19.95;;;14.82;;
70467;SDS011;57934;51.532;7.684;2023-05-13T03:52:33;19.15;;;14.88;;
70467;SDS011;57934;51.532;7.684;2023-05-13T03:54:59;17.83;;;14.80;;
70467;SDS011;57934;51.532;7.684;2023-05-13T03:57:25;21.75;;;15.73;;
70467;SDS011;57934;51.532;7.684;2023-05-13T03:59:51;21.90;;;15.00;;
70467;SDS011;57934;51.532;7.684;2023-05-13T04:02:18;20.25;;;15.20;;
70467;SDS011;57934;51.532;7.684;2023-05-13T04:04:46;16.33;;;14.55;;
70467;SDS011;57934;51.532;7.684;2023-05-13T04:07:12;21.25;;;15.02;;
70467;SDS011;57934;51.532;7.684;2023-05-13T04:09:38;19.52;;;15.70;;
70467;SDS011;57934;51.532;7.684;2023-05-13T04:12:04;20.45;;;16.27;;
70467;SDS011;57934;51.532;7.684;2023-05-13T04:14:30;21.80;;;17.08;;
70467;SDS011;57934;51.532;7.684;2023-05-13T04:16:57;21.80;;;15.52;;
70467;SDS011;57934;51.532;7.684;2023-05-13T04:19:23;22.05;;;15.77;;
70467;SDS011;57934;51.532;7.684;2023-05-13T04:21:49;21.00;;;15.40;;
70467;SDS011;57934;51.532;7.684;2023-05-13T04:24:15;17.80;;;15.90;;
70467;SDS011;57934;51.532;7.684;2023-05-13T04:26:41;21.20;;;16.23;;
70467;SDS011;57934;51.532;7.684;2023-05-13T04:29:07;19.05;;;16.83;;
70467;SDS011;57934;51.532;7.684;2023-05-13T04:31:34;20.55;;;17.42;;
70467;SDS011;57934;51.532;7.684;2023-05-13T04:34:00;20.23;;;16.55;;
70467;SDS011;57934;51.532;7.684;2023-05-13T04:36:26;23.52;;;16.63;;
70467;SDS011;57934;51.532;7.684;2023-05-13T04:38:54;20.52;;;16.60;;
70467;SDS011;57934;51.532;7.684;2023-05-13T04:41:21;22.02;;;16.25;;
70467;SDS011;57934;51.532;7.684;2023-05-13T04:43:48;19.63;;;17.13;;
70467;SDS011;57934;51.532;7.684;2023-05-13T04:46:14;21.05;;;16.92;;
70467;SDS011;57934;51.532;7.684;2023-05-13T04:48:40;19.50;;;16.25;;
70467;SDS011;57934;51.532;7.684;2023-05-13T04:51:07;20.33;;;15.63;;
70467;SDS011;57934;51.532;7.684;2023-05-13T04:53:33;18.10;;;16.23;;
70467;SDS011;57934;51.532;7.684;2023-05-13T04:56:03;28.25;;;17.20;;
70467;SDS011;57934;51.532;7.684;2023-05-13T04:58:29;21.13;;;16.67;;
70467;SDS011;57934;51.532;7.684;2023-05-13T05:00:56;22.40;;;17.02;;
70467;SDS011;57934;51.532;7.684;2023-05-13T05:03:22;20.13;;;15.68;;
70467;SDS011;57934;51.532;7.684;2023-05-13T05:05:49;21.20;;;16.05;;
70467;SDS011;57934;51.532;7.684;2023-05-13T05:08:16;20.88;;;16.10;;
70467;SDS011;57934;51.532;7.684;2023-05-13T05:10:43;20.08;;;16.23;;
70467;SDS011;57934;51.532;7.684;2023-05-13T05:13:11;19.35;;;16.73;;
70467;SDS011;57934;51.532;7.684;2023-05-13T05:15:37;19.02;;;17.02;;
70467;SDS011;57934;51.532;7.684;2023-05-13T05:18:05;19.98;;;15.93;;
70467;SDS011;57934;51.532;7.684;2023-05-13T05:20:36;19.40;;;16.00;;
70467;SDS011;57934;51.532;7.684;2023-05-13T05:23:04;19.35;;;15.57;;
70467;SDS011;57934;51.532;7.684;2023-05-13T05:25:31;17.27;;;15.38;;
70467;SDS011;57934;51.532;7.684;2023-05-13T05:27:57;20.50;;;14.80;;
70467;SDS011;57934;51.532;7.684;2023-05-13T05:30:24;19.23;;;15.68;;
70467;SDS011;57934;51.532;7.684;2023-05-13T05:32:57;19.40;;;15.75;;
70467;SDS011;57934;51.532;7.684;2023-05-13T05:35:24;20.50;;;16.52;;
70467;SDS011;57934;51.532;7.684;2023-05-13T05:37:50;19.38;;;16.98;;
70467;SDS011;57934;51.532;7.684;2023-05-13T05:40:17;19.67;;;17.02;;
70467;SDS011;57934;51.532;7.684;2023-05-13T05:42:44;19.30;;;15.00;;
70467;SDS011;57934;51.532;7.684;2023-05-13T05:45:11;18.05;;;14.38;;
70467;SDS011;57934;51.532;7.684;2023-05-13T05:47:37;19.95;;;13.35;;
70467;SDS011;57934;51.532;7.684;2023-05-13T05:50:04;17.50;;;13.30;;
70467;SDS011;57934;51.532;7.684;2023-05-13T05:52:31;14.73;;;12.98;;
70467;SDS011;57934;51.532;7.684;2023-05-13T05:54:57;14.38;;;12.05;;
70467;SDS011;57934;51.532;7.684;2023-05-13T05:57:24;15.23;;;13.02;;
70467;SDS011;57934;51.532;7.684;2023-05-13T05:59:50;15.95;;;12.35;;
70467;SDS011;57934;51.532;7.684;2023-05-13T06:02:16;16.42;;;12.45;;
70467;SDS011;57934;51.532;7.684;2023-05-13T06:04:42;14.90;;;13.43;;
70467;SDS011;57934;51.532;7.684;2023-05-13T06:07:08;15.63;;;12.45;;
70467;SDS011;57934;51.532;7.684;2023-05-13T06:09:34;15.50;;;12.57;;
70467;SDS011;57934;51.532;7.684;2023-05-13T06:12:01;14.40;;;12.88;;
70467;SDS011;57934;51.532;7.684;2023-05-13T06:14:31;14.05;;;12.63;;
70467;SDS011;57934;51.532;7.684;2023-05-13T06:16:57;16.10;;;13.10;;
70467;SDS011;57934;51.532;7.684;2023-05-13T06:19:23;15.25;;;12.40;;
70467;SDS011;57934;51.532;7.684;2023-05-13T06:21:49;12.48;;;11.20;;
70467;SDS011;57934;51.532;7.684;2023-05-13T06:24:15;14.63;;;11.40;;
70467;SDS011;57934;51.532;7.684;2023-05-13T06:26:44;14.45;;;11.25;;
70467;SDS011;57934;51.532;7.684;2023-05-13T06:29:13;13.00;;;10.90;;
70467;SDS011;57934;51.532;7.684;2023-05-13T06:31:39;12.43;;;10.40;;
70467;SDS011;57934;51.532;7.684;2023-05-13T06:34:05;11.98;;;9.88;;
70467;SDS011;57934;51.532;7.684;2023-05-13T06:36:32;17.30;;;10.88;;
70467;SDS011;57934;51.532;7.684;2023-05-13T06:39:00;12.77;;;9.60;;
70467;SDS011;57934;51.532;7.684;2023-05-13T06:41:27;12.98;;;9.48;;
70467;SDS011;57934;51.532;7.684;2023-05-13T06:43:58;12.60;;;9.20;;
70467;SDS011;57934;51.532;7.684;2023-05-13T06:46:27;13.88;;;10.13;;
70467;SDS011;57934;51.532;7.684;2023-05-13T06:48:53;11.30;;;9.52;;
70467;SDS011;57934;51.532;7.684;2023-05-13T06:51:21;11.93;;;9.68;;
70467;SDS011;57934;51.532;7.684;2023-05-13T06:53:47;10.55;;;9.20;;
70467;SDS011;57934;51.532;7.684;2023-05-13T06:56:14;13.00;;;10.48;;
70467;SDS011;57934;51.532;7.684;2023-05-13T06:58:40;20.90;;;10.95;;
70467;SDS011;57934;51.532;7.684;2023-05-13T07:01:06;11.30;;;10.15;;
70467;SDS011;57934;51.532;7.684;2023-05-13T07:03:32;11.57;;;9.23;;
70467;SDS011;57934;51.532;7.684;2023-05-13T07:05:58;12.15;;;9.43;;
70467;SDS011;57934;51.532;7.684;2023-05-13T07:08:24;11.38;;;9.35;;
70467;SDS011;57934;51.532;7.684;2023-05-13T07:10:50;12.55;;;9.57;;
70467;SDS011;57934;51.532;7.684;2023-05-13T07:13:17;14.63;;;9.63;;
70467;SDS011;57934;51.532;7.684;2023-05-13T07:15:44;13.05;;;9.18;;
70467;SDS011;57934;51.532;7.684;2023-05-13T07:18:12;14.10;;;10.32;;
70467;SDS011;57934;51.532;7.684;2023-05-13T07:20:38;12.45;;;10.13;;
70467;SDS011;57934;51.532;7.684;2023-05-13T07:23:04;11.88;;;9.32;;
70467;SDS011;57934;51.532;7.684;2023-05-13T07:25:31;11.73;;;9.10;;
70467;SDS011;57934;51.532;7.684;2023-05-13T07:27:57;9.25;;;8.30;;
70467;SDS011;57934;51.532;7.684;2023-05-13T07:30:23;9.23;;;8.15;;
70467;SDS011;57934;51.532;7.684;2023-05-13T07:32:49;9.75;;;7.20;;
70467;SDS011;57934;51.532;7.684;2023-05-13T07:35:15;11.65;;;7.95;;
70467;SDS011;57934;51.532;7.684;2023-05-13T07:37:43;9.52;;;8.63;;
70467;SDS011;57934;51.532;7.684;2023-05-13T07:40:09;9.20;;;7.55;;
70467;SDS011;57934;51.532;7.684;2023-05-13T07:42:38;8.40;;;7.60;;
70467;SDS011;57934;51.532;7.684;2023-05-13T07:45:05;9.93;;;8.05;;
70467;SDS011;57934;51.532;7.684;2023-05-13T07:47:32;9.52;;;7.88;;
70467;SDS011;57934;51.532;7.684;2023-05-13T07:49:58;11.57;;;8.07;;
70467;SDS011;57934;51.532;7.684;2023-05-13T07:52:26;13.13;;;7.95;;
70467;SDS011;57934;51.532;7.684;2023-05-13T07:54:55;12.68;;;8.13;;
70467;SDS011;57934;51.532;7.684;2023-05-13T07:57:32;11.00;;;7.68;;
70467;SDS011;57934;51.532;7.684;2023-05-13T07:59:58;8.45;;;7.38;;
70467;SDS011;57934;51.532;7.684;2023-05-13T08:02:25;10.00;;;7.18;;
70467;SDS011;57934;51.532;7.684;2023-05-13T08:04:52;7.70;;;6.75;;
70467;SDS011;57934;51.532;7.684;2023-05-13T08:07:18;8.18;;;7.03;;
70467;SDS011;57934;51.532;7.684;2023-05-13T08:09:44;12.02;;;6.90;;
70467;SDS011;57934;51.532;7.684;2023-05-13T08:12:11;8.52;;;6.88;;
70467;SDS011;57934;51.532;7.684;2023-05-13T08:14:37;9.48;;;6.80;;
70467;SDS011;57934;51.532;7.684;2023-05-13T08:17:04;11.25;;;7.32;;
70467;SDS011;57934;51.532;7.684;2023-05-13T08:19:32;8.18;;;6.80;;
70467;SDS011;57934;51.532;7.684;2023-05-13T08:21:58;8.93;;;6.15;;
70467;SDS011;57934;51.532;7.684;2023-05-13T08:24:24;13.40;;;7.45;;
70467;SDS011;57934;51.532;7.684;2023-05-13T08:26:50;7.75;;;6.40;;
70467;SDS011;57934;51.532;7.684;2023-05-13T08:29:16;9.35;;;6.40;;
70467;SDS011;57934;51.532;7.684;2023-05-13T08:31:42;8.40;;;6.07;;
70467;SDS011;57934;51.532;7.684;2023-05-13T08:34:08;9.75;;;6.25;;
70467;SDS011;57934;51.532;7.684;2023-05-13T08:36:35;8.35;;;5.90;;
70467;SDS011;57934;51.532;7.684;2023-05-13T08:39:01;10.02;;;6.20;;
70467;SDS011;57934;51.532;7.684;2023-05-13T08:41:28;10.98;;;6.20;;
70467;SDS011;57934;51.532;7.684;2023-05-13T08:43:54;9.07;;;5.50;;
70467;SDS011;57934;51.532;7.684;2023-05-13T08:46:22;8.38;;;6.22;;
70467;SDS011;57934;51.532;7.684;2023-05-13T08:48:49;6.40;;;5.75;;
70467;SDS011;57934;51.532;7.684;2023-05-13T08:51:16;9.00;;;5.78;;
70467;SDS011;57934;51.532;7.684;2023-05-13T08:53:42;8.15;;;5.70;;
70467;SDS011;57934;51.532;7.684;2023-05-13T08:56:08;8.40;;;6.07;;
70467;SDS011;57934;51.532;7.684;2023-05-13T08:58:34;7.88;;;5.50;;
70467;SDS011;57934;51.532;7.684;2023-05-13T09:01:01;12.23;;;5.95;;
70467;SDS011;57934;51.532;7.684;2023-05-13T09:03:27;8.52;;;5.45;;
70467;SDS011;57934;51.532;7.684;2023-05-13T09:05:53;8.73;;;5.57;;
70467;SDS011;57934;51.532;7.684;2023-05-13T09:08:19;7.47;;;5.82;;
70467;SDS011;57934;51.532;7.684;2023-05-13T09:10:45;6.05;;;5.55;;
70467;SDS011;57934;51.532;7.684;2023-05-13T09:13:11;6.32;;;5.60;;
70467;SDS011;57934;51.532;7.684;2023-05-13T09:15:39;9.43;;;5.60;;
70467;SDS011;57934;51.532;7.684;2023-05-13T09:18:06;7.63;;;5.60;;
70467;SDS011;57934;51.532;7.684;2023-05-13T09:20:33;8.05;;;5.38;;
70467;SDS011;57934;51.532;7.684;2023-05-13T09:23:01;6.38;;;5.78;;
70467;SDS011;57934;51.532;7.684;2023-05-13T09:25:29;7.97;;;5.55;;
70467;SDS011;57934;51.532;7.684;2023-05-13T09:27:56;8.63;;;5.22;;
70467;SDS011;57934;51.532;7.684;2023-05-13T09:30:36;7.38;;;4.60;;
70467;SDS011;57934;51.532;7.684;2023-05-13T09:33:08;6.65;;;5.25;;
70467;SDS011;57934;51.532;7.684;2023-05-13T09:35:43;10.90;;;4.90;;
70467;SDS011;57934;51.532;7.684;2023-05-13T09:38:14;12.15;;;5.20;;
70467;SDS011;57934;51.532;7.684;2023-05-13T09:40:48;6.35;;;4.72;;
70467;SDS011;57934;51.532;7.684;2023-05-13T09:43:21;6.88;;;4.95;;
70467;SDS011;57934;51.532;7.684;2023-05-13T09:45:55;8.40;;;4.68;;
70467;SDS011;57934;51.532;7.684;2023-05-13T09:48:31;6.63;;;4.45;;
70467;SDS011;57934;51.532;7.684;2023-05-13T09:50:58;7.63;;;4.80;;
70467;SDS011;57934;51.532;7.684;2023-05-13T09:53:25;6.10;;;4.78;;
70467;SDS011;57934;51.532;7.684;2023-05-13T09:55:53;6.93;;;4.07;;
70467;SDS011;57934;51.532;7.684;2023-05-13T09:58:20;5.47;;;4.47;;
70467;SDS011;57934;51.532;7.684;2023-05-13T10:00:49;4.53;;;4.13;;
70467;SDS011;57934;51.532;7.684;2023-05-13T10:03:16;11.65;;;5.28;;
70467;SDS011;57934;51.532;7.684;2023-05-13T10:05:43;7.03;;;4.97;;
70467;SDS011;57934;51.532;7.684;2023-05-13T10:08:10;7.05;;;4.72;;
70467;SDS011;57934;51.532;7.684;2023-05-13T10:10:38;5.15;;;4.60;;
70467;SDS011;57934;51.532;7.684;2023-05-13T10:13:08;9.88;;;4.70;;
70467;SDS011;57934;51.532;7.684;2023-05-13T10:15:42;6.13;;;4.38;;
70467;SDS011;57934;51.532;7.684;2023-05-13T10:18:15;6.20;;;4.57;;
70467;SDS011;57934;51.532;7.684;2023-05-13T10:20:42;5.05;;;4.15;;
70467;SDS011;57934;51.532;7.684;2023-05-13T10:23:09;5.25;;;4.68;;
70467;SDS011;57934;51.532;7.684;2023-05-13T10:25:36;6.93;;;4.72;;
70467;SDS011;57934;51.532;7.684;2023-05-13T10:28:03;10.50;;;4.05;;
70467;SDS011;57934;51.532;7.684;2023-05-13T10:30:30;5.25;;;4.00;;
70467;SDS011;57934;51.532;7.684;2023-05-13T10:32:57;4.65;;;3.75;;
70467;SDS011;57934;51.532;7.684;2023-05-13T10:35:25;5.00;;;4.13;;
70467;SDS011;57934;51.532;7.684;2023-05-13T10:38:04;7.55;;;4.18;;
70467;SDS011;57934;51.532;7.684;2023-05-13T10:43:11;4.88;;;3.55;;
70467;SDS011;57934;51.532;7.684;2023-05-13T10:45:48;5.63;;;3.92;;
70467;SDS011;57934;51.532;7.684;2023-05-13T10:48:15;6.53;;;3.80;;
70467;SDS011;57934;51.532;7.684;2023-05-13T10:50:56;5.18;;;4.10;;
70467;SDS011;57934;51.532;7.684;2023-05-13T10:53:30;6.75;;;4.50;;
70467;SDS011;57934;51.532;7.684;2023-05-13T10:55:58;6.65;;;3.92;;
70467;SDS011;57934;51.532;7.684;2023-05-13T10:58:28;8.40;;;3.72;;
70467;SDS011;57934;51.532;7.684;2023-05-13T11:01:17;8.52;;;3.80;;
70467;SDS011;57934;51.532;7.684;2023-05-13T11:03:53;5.22;;;3.90;;
70467;SDS011;57934;51.532;7.684;2023-05-13T11:06:21;4.72;;;4.22;;
70467;SDS011;57934;51.532;7.684;2023-05-13T11:08:49;4.60;;;4.20;;
70467;SDS011;57934;51.532;7.684;2023-05-13T11:11:17;7.00;;;4.22;;
70467;SDS011;57934;51.532;7.684;2023-05-13T11:13:51;5.13;;;3.92;;
70467;SDS011;57934;51.532;7.684;2023-05-13T11:16:19;7.65;;;4.28;;
70467;SDS011;57934;51.532;7.684;2023-05-13T11:18:47;6.70;;;4.10;;
70467;SDS011;57934;51.532;7.684;2023-05-13T11:21:13;5.07;;;4.57;;
70467;SDS011;57934;51.532;7.684;2023-05-13T11:23:50;6.53;;;4.40;;
70467;SDS011;57934;51.532;7.684;2023-05-13T11:26:17;6.82;;;4.47;;
70467;SDS011;57934;51.532;7.684;2023-05-13T11:28:59;4.63;;;4.18;;
70467;SDS011;57934;51.532;7.684;2023-05-13T11:31:43;4.30;;;3.90;;
70467;SDS011;57934;51.532;7.684;2023-05-13T11:34:14;6.78;;;3.88;;
70467;SDS011;57934;51.532;7.684;2023-05-13T11:36:45;4.03;;;3.60;;
70467;SDS011;57934;51.532;7.684;2023-05-13T11:39:13;6.60;;;4.30;;
70467;SDS011;57934;51.532;7.684;2023-05-13T11:41:47;7.05;;;4.03;;
70467;SDS011;57934;51.532;7.684;2023-05-13T11:44:16;8.68;;;4.30;;
70467;SDS011;57934;51.532;7.684;2023-05-13T11:46:53;8.80;;;3.95;;
70467;SDS011;57934;51.532;7.684;2023-05-13T11:52:12;5.78;;;3.75;;
70467;SDS011;57934;51.532;7.684;2023-05-13T11:54:41;9.40;;;3.70;;
70467;SDS011;57934;51.532;7.684;2023-05-13T11:57:24;6.05;;;3.88;;
70467;SDS011;57934;51.532;7.684;2023-05-13T11:59:51;5.00;;;3.95;;
70467;SDS011;57934;51.532;7.684;2023-05-13T12:02:24;4.85;;;3.45;;
70467;SDS011;57934;51.532;7.684;2023-05-13T12:07:24;12.02;;;4.25;;
70467;SDS011;57934;51.532;7.684;2023-05-13T12:09:52;4.65;;;3.67;;
70467;SDS011;57934;51.532;7.684;2023-05-13T12:12:21;4.90;;;4.38;;
70467;SDS011;57934;51.532;7.684;2023-05-13T12:14:48;7.85;;;4.00;;
70467;SDS011;57934;51.532;7.684;2023-05-13T12:17:16;7.68;;;3.65;;
70467;SDS011;57934;51.532;7.684;2023-05-13T12:20:26;7.15;;;3.22;;
70467;SDS011;57934;51.532;7.684;2023-05-13T12:30:37;5.63;;;3.17;;
70467;SDS011;57934;51.532;7.684;2023-05-13T12:33:13;4.72;;;2.92;;
70467;SDS011;57934;51.532;7.684;2023-05-13T12:35:42;6.32;;;3.45;;
70467;SDS011;57934;51.532;7.684;2023-05-13T12:38:12;5.78;;;3.05;;
70467;SDS011;57934;51.532;7.684;2023-05-13T12:40:41;6.25;;;3.10;;
70467;SDS011;57934;51.532;7.684;2023-05-13T12:43:07;3.88;;;3.25;;
70467;SDS011;57934;51.532;7.684;2023-05-13T12:45:35;10.23;;;3.10;;
70467;SDS011;57934;51.532;7.684;2023-05-13T12:48:02;4.68;;;2.92;;
70467;SDS011;57934;51.532;7.684;2023-05-13T12:50:28;5.50;;;3.08;;
70467;SDS011;57934;51.532;7.684;2023-05-13T12:52:54;7.13;;;4.05;;
70467;SDS011;57934;51.532;7.684;2023-05-13T12:55:22;3.20;;;2.90;;
70467;SDS011;57934;51.532;7.684;2023-05-13T13:00:22;3.25;;;2.90;;
70467;SDS011;57934;51.532;7.684;2023-05-13T13:02:55;4.93;;;3.28;;
70467;SDS011;57934;51.532;7.684;2023-05-13T13:05:50;4.35;;;3.38;;
70467;SDS011;57934;51.532;7.684;2023-05-13T13:08:38;5.60;;;3.22;;
70467;SDS011;57934;51.532;7.684;2023-05-13T13:11:37;8.13;;;3.13;;
70467;SDS011;57934;51.532;7.684;2023-05-13T13:14:41;4.22;;;3.05;;
70467;SDS011;57934;51.532;7.684;2023-05-13T13:17:47;9.30;;;3.15;;
70467;SDS011;57934;51.532;7.684;2023-05-13T13:23:14;7.00;;;3.20;;
70467;SDS011;57934;51.532;7.684;2023-05-13T13:25:40;8.95;;;3.55;;
70467;SDS011;57934;51.532;7.684;2023-05-13T13:28:06;5.63;;;3.08;;
70467;SDS011;57934;51.532;7.684;2023-05-13T13:30:32;5.90;;;3.42;;
70467;SDS011;57934;51.532;7.684;2023-05-13T13:33:01;4.97;;;3.45;;
70467;SDS011;57934;51.532;7.684;2023-05-13T13:36:18;10.05;;;4.82;;
70467;SDS011;57934;51.532;7.684;2023-05-13T13:38:44;8.43;;;5.07;;
70467;SDS011;57934;51.532;7.684;2023-05-13T13:41:10;12.68;;;5.32;;
70467;SDS011;57934;51.532;7.684;2023-05-13T13:43:37;16.48;;;8.00;;
70467;SDS011;57934;51.532;7.684;2023-05-13T13:46:03;14.13;;;7.57;;
70467;SDS011;57934;51.532;7.684;2023-05-13T13:48:29;10.55;;;7.80;;
70467;SDS011;57934;51.532;7.684;2023-05-13T13:50:55;12.27;;;7.30;;
70467;SDS011;57934;51.532;7.684;2023-05-13T13:53:23;10.18;;;8.07;;
70467;SDS011;57934;51.532;7.684;2023-05-13T13:55:49;8.20;;;6.82;;
70467;SDS011;57934;51.532;7.684;2023-05-13T13:58:15;12.55;;;7.47;;
70467;SDS011;57934;51.532;7.684;2023-05-13T14:00:41;10.18;;;7.68;;
70467;SDS011;57934;51.532;7.684;2023-05-13T14:03:07;7.38;;;5.97;;
70467;SDS011;57934;51.532;7.684;2023-05-13T14:05:34;8.88;;;7.30;;
70467;SDS011;57934;51.532;7.684;2023-05-13T14:08:00;7.57;;;6.88;;
70467;SDS011;57934;51.532;7.684;2023-05-13T14:10:26;7.88;;;6.00;;
70467;SDS011;57934;51.532;7.684;2023-05-13T14:12:52;10.38;;;6.63;;
70467;SDS011;57934;51.532;7.684;2023-05-13T14:15:18;6.32;;;5.20;;
70467;SDS011;57934;51.532;7.684;2023-05-13T14:17:45;5.43;;;4.93;;
70467;SDS011;57934;51.532;7.684;2023-05-13T14:20:11;4.30;;;3.90;;
70467;SDS011;57934;51.532;7.684;2023-05-13T14:22:37;7.38;;;3.92;;
70467;SDS011;57934;51.532;7.684;2023-05-13T14:25:03;9.48;;;4.78;;
70467;SDS011;57934;51.532;7.684;2023-05-13T14:27:29;4.28;;;3.88;;
70467;SDS011;57934;51.532;7.684;2023-05-13T14:29:57;4.55;;;3.40;;
70467;SDS011;57934;51.532;7.684;2023-05-13T14:32:23;3.53;;;3.25;;
70467;SDS011;57934;51.532;7.684;2023-05-13T14:34:50;5.95;;;3.10;;
70467;SDS011;57934;51.532;7.684;2023-05-13T14:37:16;8.82;;;3.63;;
70467;SDS011;57934;51.532;7.684;2023-05-13T14:39:42;5.30;;;3.33;;
70467;SDS011;57934;51.532;7.684;2023-05-13T14:42:08;3.20;;;2.90;;
70467;SDS011;57934;51.532;7.684;2023-05-13T14:44:36;5.82;;;3.72;;
70467;SDS011;57934;51.532;7.684;2023-05-13T14:47:02;6.85;;;3.38;;
70467;SDS011;57934;51.532;7.684;2023-05-13T14:49:28;7.45;;;3.35;;
70467;SDS011;57934;51.532;7.684;2023-05-13T14:51:54;4.03;;;3.45;;
70467;SDS011;57934;51.532;7.684;2023-05-13T14:54:21;4.20;;;3.80;;
70467;SDS011;57934;51.532;7.684;2023-05-13T14:56:47;4.63;;;3.58;;
70467;SDS011;57934;51.532;7.684;2023-05-13T14:59:13;3.50;;;3.20;;
70467;SDS011;57934;51.532;7.684;2023-05-13T15:01:39;3.95;;;3.30;;
70467;SDS011;57934;51.532;7.684;2023-05-13T15:04:05;5.43;;;2.75;;
70467;SDS011;57934;51.532;7.684;2023-05-13T15:06:32;4.75;;;3.67;;
70467;SDS011;57934;51.532;7.684;2023-05-13T15:08:58;3.15;;;2.42;;
70467;SDS011;57934;51.532;7.684;2023-05-13T15:11:25;4.22;;;3.25;;
70467;SDS011;57934;51.532;7.684;2023-05-13T15:13:52;3.53;;;3.20;;
70467;SDS011;57934;51.532;7.684;2023-05-13T15:16:18;5.22;;;3.13;;